Time;durP1;ratioP1;P1;durP2;ratioP2;P2;SDS_P1;SDS_P2;PMS_P1;PMS_P2;Temp;Humidity;BMP_temperature;BMP_pressure;BME280_temperature;BME280_humidity;BME280_pressure;Samples;Min_cycle;Max_cycle;Signal;HPM_P1;HPM_P2
2024/01/12 00:02:17;;;;;;;;;;;19.20;44.80;;;;;;5091526;28;19986;-57
2024/01/12 00:04:44;;;;;;;;;;;19.20;44.80;;;;;;5089091;28;19920;-57
2024/01/12 00:07:10;;;;;;;;;;;19.30;44.90;;;;;;5080352;28;19927;-57
2024/01/12 00:09:37;;;;;;;;;;;19.30;44.90;;;;;;5078046;28;19957;-57
2024/01/12 00:12:04;;;;;;;;;;;19.30;44.90;;;;;;5091482;28;19935;-57
2024/01/12 00:14:32;;;;;;;;;;;19.30;44.90;;;;;;5078662;28;19931;-57
2024/01/12 00:16:59;;;;;;;;;;;19.20;44.90;;;;;;5079961;28;20331;-57
2024/01/12 00:19:26;;;;;;;;;;;19.30;44.90;;;;;;5077415;28;19924;-57
2024/01/12 00:21:54;;;;;;;;;;;19.30;44.90;;;;;;5083212;28;19969;-58
2024/01/12 00:24:21;;;;;;;;;;;19.20;44.90;;;;;;5076714;28;19927;-57
2024/01/12 00:26:49;;;;;;;;;;;19.30;45.00;;;;;;5080866;28;20268;-57
2024/01/12 00:29:15;;;;;;;;;;;19.20;44.90;;;;;;5091353;28;19924;-57
2024/01/12 00:31:45;;;;;;;;;;;19.30;45.00;;;;;;5090959;28;19920;-57
2024/01/12 00:34:11;;;;;;;;;;;19.30;45.00;;;;;;5090982;28;19932;-57
2024/01/12 00:36:38;;;;;;;;;;;19.20;45.00;;;;;;5089950;28;19940;-57
2024/01/12 00:39:05;;;;;;;;;;;19.20;45.00;;;;;;5084768;28;19924;-58
2024/01/12 00:41:32;;;;;;;;;;;19.20;45.00;;;;;;5080093;28;19932;-57
2024/01/12 00:43:59;;;;;;;;;;;19.30;45.10;;;;;;5090498;28;19928;-57
2024/01/12 00:46:26;;;;;;;;;;;19.20;45.00;;;;;;5089779;28;19935;-58
2024/01/12 00:48:54;;;;;;;;;;;19.20;45.00;;;;;;5081786;28;19924;-57
2024/01/12 00:51:20;;;;;;;;;;;19.20;45.10;;;;;;5081316;28;19988;-57
2024/01/12 00:53:47;;;;;;;;;;;19.20;45.00;;;;;;5080959;28;20371;-57
2024/01/12 00:56:14;;;;;;;;;;;19.30;45.10;;;;;;5089603;28;20223;-58
2024/01/12 00:58:41;;;;;;;;;;;19.20;45.10;;;;;;5090303;28;20276;-58
2024/01/12 01:01:07;;;;;;;;;;;19.20;45.10;;;;;;5079716;28;19927;-57
2024/01/12 01:03:34;;;;;;;;;;;19.20;45.10;;;;;;5083824;28;20288;-57
2024/01/12 01:06:02;;;;;;;;;;;19.30;45.20;;;;;;5090282;28;19920;-57
2024/01/12 01:08:29;;;;;;;;;;;19.30;45.20;;;;;;5063531;28;19920;-57
2024/01/12 01:10:56;;;;;;;;;;;19.20;45.10;;;;;;5082029;28;19931;-57
2024/01/12 01:13:23;;;;;;;;;;;19.20;45.70;;;;;;5090140;28;19924;-57
2024/01/12 01:15:49;;;;;;;;;;;19.20;45.10;;;;;;5076295;28;20067;-57
2024/01/12 01:18:17;;;;;;;;;;;19.20;45.10;;;;;;5079417;28;19931;-58
2024/01/12 01:20:44;;;;;;;;;;;19.30;45.20;;;;;;5081422;28;19927;-57
2024/01/12 01:23:12;;;;;;;;;;;19.30;45.10;;;;;;5082697;28;20369;-57
2024/01/12 01:25:39;;;;;;;;;;;19.20;45.10;;;;;;5075424;28;19973;-57
2024/01/12 01:28:06;;;;;;;;;;;19.20;45.00;;;;;;5078492;28;19924;-57
2024/01/12 01:30:32;;;;;;;;;;;19.20;45.10;;;;;;5080518;28;19932;-57
2024/01/12 01:32:59;;;;;;;;;;;19.20;45.00;;;;;;5089410;28;20019;-57
2024/01/12 01:35:25;;;;;;;;;;;19.20;45.00;;;;;;5076854;28;19923;-57
2024/01/12 01:37:52;;;;;;;;;;;19.20;45.00;;;;;;5089797;28;19943;-57
2024/01/12 01:40:20;;;;;;;;;;;19.20;45.00;;;;;;5073000;28;19925;-57
2024/01/12 01:42:47;;;;;;;;;;;19.20;45.00;;;;;;5081726;28;19924;-58
2024/01/12 01:45:14;;;;;;;;;;;19.20;45.00;;;;;;5079050;28;19955;-57
2024/01/12 01:47:41;;;;;;;;;;;19.20;44.90;;;;;;5075311;28;20269;-57
2024/01/12 01:50:08;;;;;;;;;;;19.20;44.90;;;;;;5071630;28;19920;-57
2024/01/12 01:52:35;;;;;;;;;;;19.20;44.90;;;;;;5077995;28;19927;-57
2024/01/12 01:55:02;;;;;;;;;;;19.20;45.50;;;;;;5090236;28;19932;-57
2024/01/12 01:57:30;;;;;;;;;;;19.20;44.90;;;;;;5077232;28;19931;-57
2024/01/12 01:59:57;;;;;;;;;;;19.20;45.00;;;;;;5078112;28;19931;-57
2024/01/12 02:02:23;;;;;;;;;;;19.20;44.90;;;;;;5080381;28;19924;-57
2024/01/12 02:04:51;;;;;;;;;;;19.20;44.90;;;;;;5090499;28;19924;-57
2024/01/12 02:07:18;;;;;;;;;;;19.20;44.90;;;;;;5079059;28;19925;-57
2024/01/12 02:09:44;;;;;;;;;;;19.20;44.90;;;;;;5082512;28;19920;-57
2024/01/12 02:12:11;;;;;;;;;;;19.20;44.90;;;;;;5092213;28;19949;-57
2024/01/12 02:14:39;;;;;;;;;;;19.20;44.90;;;;;;5080247;28;19965;-57
2024/01/12 02:17:06;;;;;;;;;;;19.20;44.90;;;;;;5080174;28;19924;-57
2024/01/12 02:19:32;;;;;;;;;;;19.20;44.90;;;;;;5082823;28;19920;-57
2024/01/12 02:22:01;;;;;;;;;;;19.20;44.90;;;;;;5084238;28;19920;-57
2024/01/12 02:24:27;;;;;;;;;;;19.20;44.90;;;;;;5082458;28;19920;-57
2024/01/12 02:26:54;;;;;;;;;;;19.20;44.90;;;;;;5078348;28;19939;-57
2024/01/12 02:29:21;;;;;;;;;;;19.20;45.00;;;;;;5092333;28;19927;-58
2024/01/12 02:31:47;;;;;;;;;;;19.20;45.50;;;;;;5093503;28;19920;-57
2024/01/12 02:34:14;;;;;;;;;;;19.20;45.00;;;;;;5093915;28;20381;-57
2024/01/12 02:36:41;;;;;;;;;;;19.20;45.00;;;;;;5080743;28;19968;-56
2024/01/12 02:39:10;;;;;;;;;;;19.20;44.90;;;;;;5086357;28;19920;-58
2024/01/12 02:41:36;;;;;;;;;;;19.20;45.00;;;;;;5093374;28;19924;-57
2024/01/12 02:44:03;;;;;;;;;;;19.20;45.00;;;;;;5084789;28;19924;-57
2024/01/12 02:46:31;;;;;;;;;;;19.20;45.00;;;;;;5092628;28;19924;-57
2024/01/12 02:48:58;;;;;;;;;;;19.20;45.00;;;;;;5092846;28;19920;-57
2024/01/12 02:51:24;;;;;;;;;;;19.20;45.00;;;;;;5093277;28;19920;-58
2024/01/12 02:53:51;;;;;;;;;;;19.20;45.00;;;;;;5093299;28;19928;-57
2024/01/12 02:56:19;;;;;;;;;;;19.20;45.00;;;;;;5078571;28;19927;-57
2024/01/12 02:58:46;;;;;;;;;;;19.20;45.00;;;;;;5092580;28;19927;-57
2024/01/12 03:01:12;;;;;;;;;;;19.20;45.10;;;;;;5077890;28;19920;-57
2024/01/12 03:03:39;;;;;;;;;;;19.20;45.10;;;;;;5079858;28;19931;-57
2024/01/12 03:06:07;;;;;;;;;;;19.20;45.10;;;;;;5080513;28;19924;-57
2024/01/12 03:08:33;;;;;;;;;;;19.20;45.10;;;;;;5080371;28;20430;-57
2024/01/12 03:11:00;;;;;;;;;;;19.20;45.10;;;;;;5080678;28;19920;-57
2024/01/12 03:13:28;;;;;;;;;;;19.20;45.00;;;;;;5080363;28;20411;-57
2024/01/12 03:15:55;;;;;;;;;;;19.20;45.10;;;;;;5078089;28;19974;-57
2024/01/12 03:18:22;;;;;;;;;;;19.20;45.00;;;;;;5092060;28;19921;-57
2024/01/12 03:20:48;;;;;;;;;;;19.20;45.00;;;;;;5090251;28;19946;-57
2024/01/12 03:23:15;;;;;;;;;;;19.20;45.00;;;;;;5092582;28;19920;-57
2024/01/12 03:25:42;;;;;;;;;;;19.20;45.00;;;;;;5078795;28;19931;-57
2024/01/12 03:28:09;;;;;;;;;;;19.20;45.00;;;;;;5091778;28;19920;-57
2024/01/12 03:30:37;;;;;;;;;;;19.20;45.00;;;;;;5082034;28;19932;-57
2024/01/12 03:33:04;;;;;;;;;;;19.20;44.90;;;;;;5083761;28;19924;-57
2024/01/12 03:35:31;;;;;;;;;;;19.20;45.00;;;;;;5082212;28;19920;-58
2024/01/12 03:38:00;;;;;;;;;;;19.20;44.90;;;;;;5082683;28;19928;-57
2024/01/12 03:40:27;;;;;;;;;;;19.20;44.90;;;;;;5092228;28;20389;-57
2024/01/12 03:42:53;;;;;;;;;;;19.20;44.90;;;;;;5079444;28;19920;-57
2024/01/12 03:45:20;;;;;;;;;;;19.20;44.90;;;;;;5079517;28;19927;-57
2024/01/12 03:47:48;;;;;;;;;;;19.20;44.90;;;;;;5085656;28;19920;-58
2024/01/12 03:50:15;;;;;;;;;;;19.20;44.90;;;;;;5078185;28;19962;-57
2024/01/12 03:52:42;;;;;;;;;;;19.20;44.90;;;;;;5077429;28;19920;-57
2024/01/12 03:55:08;;;;;;;;;;;19.20;44.80;;;;;;5091989;28;19987;-57
2024/01/12 03:57:35;;;;;;;;;;;19.20;44.90;;;;;;5077856;28;19924;-57
2024/01/12 04:00:02;;;;;;;;;;;19.20;44.90;;;;;;5085327;28;20331;-57
2024/01/12 04:02:29;;;;;;;;;;;19.20;44.90;;;;;;5082959;28;19928;-57
2024/01/12 04:04:57;;;;;;;;;;;19.20;44.90;;;;;;5091151;28;19926;-57
2024/01/12 04:07:26;;;;;;;;;;;19.20;44.90;;;;;;5078344;28;20323;-57
2024/01/12 04:09:53;;;;;;;;;;;19.20;44.90;;;;;;5092054;28;19920;-57
2024/01/12 04:12:20;;;;;;;;;;;19.20;44.90;;;;;;5073672;28;19931;-58
2024/01/12 04:14:46;;;;;;;;;;;19.20;44.90;;;;;;5078320;28;19966;-57
2024/01/12 04:17:13;;;;;;;;;;;19.20;45.50;;;;;;5076360;28;20349;-57
2024/01/12 04:19:40;;;;;;;;;;;19.20;44.90;;;;;;5092035;28;19920;-57
2024/01/12 04:22:08;;;;;;;;;;;19.20;44.90;;;;;;5073586;28;20361;-57
2024/01/12 04:24:34;;;;;;;;;;;19.20;44.90;;;;;;5092598;28;19920;-57
2024/01/12 04:27:01;;;;;;;;;;;19.20;44.90;;;;;;5073143;28;19939;-57
2024/01/12 04:29:28;;;;;;;;;;;19.20;45.50;;;;;;5090660;28;19935;-58
2024/01/12 04:31:55;;;;;;;;;;;19.20;45.00;;;;;;5072857;28;19967;-57
2024/01/12 04:34:21;;;;;;;;;;;19.20;44.90;;;;;;5090917;28;19920;-57
2024/01/12 04:36:48;;;;;;;;;;;19.20;44.90;;;;;;5076756;28;20444;-58
2024/01/12 04:39:16;;;;;;;;;;;19.20;45.00;;;;;;5073326;28;19920;-57
2024/01/12 04:41:43;;;;;;;;;;;19.20;45.00;;;;;;5090855;28;20027;-57
2024/01/12 04:44:10;;;;;;;;;;;19.20;45.00;;;;;;5081290;28;19924;-57
2024/01/12 04:46:38;;;;;;;;;;;19.20;45.00;;;;;;5076656;28;20177;-57
2024/01/12 04:49:04;;;;;;;;;;;19.20;45.00;;;;;;5091207;28;19972;-57
2024/01/12 04:51:30;;;;;;;;;;;19.20;45.00;;;;;;5081493;28;20441;-58
2024/01/12 04:53:57;;;;;;;;;;;19.20;45.00;;;;;;5080485;28;19920;-57
2024/01/12 04:56:25;;;;;;;;;;;19.20;45.00;;;;;;5073738;28;19931;-57
2024/01/12 04:58:52;;;;;;;;;;;19.20;45.60;;;;;;5079464;28;19920;-57
2024/01/12 05:01:18;;;;;;;;;;;19.20;45.10;;;;;;5069650;28;19937;-57
2024/01/12 05:03:45;;;;;;;;;;;19.20;45.10;;;;;;5072724;28;19963;-57
2024/01/12 05:06:12;;;;;;;;;;;19.20;45.10;;;;;;5071920;28;19974;-57
2024/01/12 05:08:38;;;;;;;;;;;19.20;45.10;;;;;;5090584;28;19990;-57
2024/01/12 05:11:05;;;;;;;;;;;19.20;45.00;;;;;;5073274;28;19969;-57
2024/01/12 05:13:33;;;;;;;;;;;19.20;45.00;;;;;;5076347;28;19920;-57
2024/01/12 05:16:00;;;;;;;;;;;19.20;45.00;;;;;;5082321;28;19936;-57
2024/01/12 05:18:26;;;;;;;;;;;19.20;45.00;;;;;;5086725;28;19924;-57
2024/01/12 05:20:53;;;;;;;;;;;19.20;45.00;;;;;;5087335;28;19920;-57
2024/01/12 05:23:20;;;;;;;;;;;19.20;45.00;;;;;;5072948;28;19985;-57
2024/01/12 05:25:46;;;;;;;;;;;19.20;44.90;;;;;;5074693;28;19956;-57
2024/01/12 05:28:13;;;;;;;;;;;19.20;44.90;;;;;;5091009;28;20023;-57
2024/01/12 05:30:41;;;;;;;;;;;19.20;44.90;;;;;;5091094;28;19928;-57
2024/01/12 05:33:08;;;;;;;;;;;19.20;44.90;;;;;;5089689;28;20373;-57
2024/01/12 05:35:35;;;;;;;;;;;19.20;44.90;;;;;;5076513;28;19969;-58
2024/01/12 05:38:02;;;;;;;;;;;19.20;44.90;;;;;;5080341;28;19932;-57
2024/01/12 05:40:29;;;;;;;;;;;19.20;44.90;;;;;;5081196;28;19924;-57
2024/01/12 05:42:56;;;;;;;;;;;19.20;44.90;;;;;;5066862;28;19928;-57
2024/01/12 05:45:22;;;;;;;;;;;19.20;44.80;;;;;;5100618;28;19920;-58
2024/01/12 05:47:50;;;;;;;;;;;19.20;44.80;;;;;;5082014;28;19924;-57
2024/01/12 05:50:17;;;;;;;;;;;19.10;44.80;;;;;;5093789;28;19921;-57
2024/01/12 05:52:44;;;;;;;;;;;19.20;44.80;;;;;;5079349;28;19924;-57
2024/01/12 05:55:11;;;;;;;;;;;19.20;44.80;;;;;;5084120;28;19920;-57
2024/01/12 05:57:38;;;;;;;;;;;19.20;44.80;;;;;;5084878;28;19978;-57
2024/01/12 06:00:05;;;;;;;;;;;19.10;44.80;;;;;;5094768;28;19920;-57
2024/01/12 06:02:32;;;;;;;;;;;19.20;44.80;;;;;;5074115;28;19927;-58
2024/01/12 06:05:00;;;;;;;;;;;19.20;44.90;;;;;;5075533;28;19977;-57
2024/01/12 06:07:27;;;;;;;;;;;19.20;44.80;;;;;;5076483;28;20353;-57
2024/01/12 06:09:54;;;;;;;;;;;19.20;44.90;;;;;;5094296;28;19973;-57
2024/01/12 06:12:21;;;;;;;;;;;19.20;44.90;;;;;;5082409;28;19920;-57
2024/01/12 06:14:48;;;;;;;;;;;19.10;44.80;;;;;;5100628;28;19927;-57
2024/01/12 06:17:15;;;;;;;;;;;19.20;44.90;;;;;;5076055;28;19924;-57
2024/01/12 06:19:42;;;;;;;;;;;19.20;44.90;;;;;;5075848;28;19920;-57
2024/01/12 06:22:10;;;;;;;;;;;19.20;44.90;;;;;;5089972;28;19923;-57
2024/01/12 06:24:37;;;;;;;;;;;19.10;44.80;;;;;;5083330;28;19983;-57
2024/01/12 06:27:04;;;;;;;;;;;19.10;44.80;;;;;;5083784;28;19987;-57
2024/01/12 06:29:31;;;;;;;;;;;19.20;44.90;;;;;;5094400;28;19976;-57
2024/01/12 06:31:58;;;;;;;;;;;19.10;44.80;;;;;;5093894;28;19920;-56
2024/01/12 06:34:24;;;;;;;;;;;19.20;44.90;;;;;;5074866;28;19920;-57
2024/01/12 06:36:51;;;;;;;;;;;19.20;44.90;;;;;;5093807;28;19931;-56
2024/01/12 06:39:19;;;;;;;;;;;19.20;45.00;;;;;;5093608;28;19965;-57
2024/01/12 06:41:46;;;;;;;;;;;19.20;45.60;;;;;;5097949;28;19920;-57
2024/01/12 06:44:13;;;;;;;;;;;19.20;45.00;;;;;;5072930;28;19920;-57
2024/01/12 06:46:41;;;;;;;;;;;19.20;45.00;;;;;;5093659;28;19920;-57
2024/01/12 06:49:08;;;;;;;;;;;19.20;45.00;;;;;;5083126;28;19973;-57
2024/01/12 06:51:35;;;;;;;;;;;19.20;45.00;;;;;;5092067;28;19924;-57
2024/01/12 06:54:01;;;;;;;;;;;19.20;45.00;;;;;;5079123;28;19969;-57
2024/01/12 06:56:30;;;;;;;;;;;19.20;45.00;;;;;;5083658;28;19927;-57
2024/01/12 06:58:57;;;;;;;;;;;19.20;45.10;;;;;;5092671;28;19920;-57
2024/01/12 07:01:24;;;;;;;;;;;19.10;45.00;;;;;;5084112;28;19987;-57
2024/01/12 07:03:51;;;;;;;;;;;19.20;45.10;;;;;;5079284;28;19981;-57
2024/01/12 07:06:17;;;;;;;;;;;19.10;45.00;;;;;;5090968;28;19927;-55
2024/01/12 07:08:44;;;;;;;;;;;19.20;45.00;;;;;;5084359;28;19920;-57
2024/01/12 07:11:11;;;;;;;;;;;19.20;45.10;;;;;;5083535;28;19924;-57
2024/01/12 07:13:39;;;;;;;;;;;19.10;44.90;;;;;;5078843;28;19970;-57
2024/01/12 07:16:06;;;;;;;;;;;19.10;45.00;;;;;;5092155;28;19924;-56
2024/01/12 07:18:32;;;;;;;;;;;19.10;43.60;;;;;;5092612;28;20362;-58
2024/01/12 07:21:03;;;;;;;;;;;19.00;35.80;;;;;;5078501;28;19920;-56
2024/01/12 07:23:30;;;;;;;;;;;18.80;32.50;;;;;;5071824;28;19927;-56
2024/01/12 07:25:57;;;;;;;;;;;18.60;35.10;;;;;;5089068;28;20423;-57
2024/01/12 07:28:24;;;;;;;;;;;18.40;36.40;;;;;;5078771;28;19923;-56
2024/01/12 07:30:52;;;;;;;;;;;18.30;37.40;;;;;;5085424;28;19927;-54
2024/01/12 07:33:19;;;;;;;;;;;18.30;38.30;;;;;;5091566;28;19931;-55
2024/01/12 07:35:45;;;;;;;;;;;18.30;38.90;;;;;;5079032;28;20002;-56
2024/01/12 07:38:12;;;;;;;;;;;18.30;39.30;;;;;;5076886;28;19989;-57
2024/01/12 07:40:39;;;;;;;;;;;18.30;39.70;;;;;;5076484;28;19920;-57
2024/01/12 07:43:05;;;;;;;;;;;18.40;40.10;;;;;;5079476;28;19927;-57
2024/01/12 07:45:32;;;;;;;;;;;18.40;40.40;;;;;;5082276;28;19924;-56
2024/01/12 07:48:00;;;;;;;;;;;18.40;40.70;;;;;;5092142;28;19984;-57
2024/01/12 07:50:27;;;;;;;;;;;18.50;40.90;;;;;;5078893;28;19920;-56
2024/01/12 07:52:54;;;;;;;;;;;18.50;41.00;;;;;;5082223;28;20037;-57
2024/01/12 07:55:21;;;;;;;;;;;18.50;41.10;;;;;;5082116;28;19977;-57
2024/01/12 07:57:47;;;;;;;;;;;18.60;41.20;;;;;;5074188;28;19924;-56
2024/01/12 08:00:15;;;;;;;;;;;18.60;41.30;;;;;;5078470;28;19923;-56
2024/01/12 08:02:42;;;;;;;;;;;18.60;41.40;;;;;;5079949;28;19932;-57
2024/01/12 08:05:10;;;;;;;;;;;18.60;41.50;;;;;;5078364;28;19920;-57
2024/01/12 08:07:37;;;;;;;;;;;18.60;41.60;;;;;;5087842;28;19928;-55
2024/01/12 08:10:04;;;;;;;;;;;18.70;41.80;;;;;;5080058;28;19969;-56
2024/01/12 08:12:31;;;;;;;;;;;18.70;41.90;;;;;;5092455;28;19924;-55
2024/01/12 08:14:57;;;;;;;;;;;18.70;41.90;;;;;;5090405;28;19919;-57
2024/01/12 08:17:24;;;;;;;;;;;18.70;42.00;;;;;;5091567;28;19920;-55
2024/01/12 08:19:51;;;;;;;;;;;18.70;42.00;;;;;;5091362;28;19924;-52
2024/01/12 08:22:19;;;;;;;;;;;18.70;42.10;;;;;;5079894;28;19936;-57
2024/01/12 08:24:47;;;;;;;;;;;18.80;42.30;;;;;;5088256;28;20633;-57
2024/01/12 08:27:13;;;;;;;;;;;18.80;42.30;;;;;;5079424;28;19924;-54
2024/01/12 08:29:40;;;;;;;;;;;18.80;42.40;;;;;;5082119;28;19924;-53
2024/01/12 08:32:07;;;;;;;;;;;18.80;42.50;;;;;;5052812;28;19924;-55
2024/01/12 08:34:33;;;;;;;;;;;18.80;42.50;;;;;;5070069;28;20133;-56
2024/01/12 08:37:00;;;;;;;;;;;18.80;42.60;;;;;;5063284;28;19921;-57
2024/01/12 08:39:29;;;;;;;;;;;18.90;42.70;;;;;;5091393;28;19920;-55
2024/01/12 08:41:56;;;;;;;;;;;18.90;42.80;;;;;;5090746;28;19921;-57
2024/01/12 08:44:23;;;;;;;;;;;18.90;42.90;;;;;;5075872;28;20031;-56
2024/01/12 08:46:52;;;;;;;;;;;18.90;42.90;;;;;;5089271;28;19959;-54
2024/01/12 08:49:19;;;;;;;;;;;18.90;42.90;;;;;;5062975;28;19920;-56
2024/01/12 08:51:46;;;;;;;;;;;19.00;43.10;;;;;;5077257;28;19936;-57
2024/01/12 08:54:12;;;;;;;;;;;19.00;43.10;;;;;;5066820;28;19930;-56
2024/01/12 08:56:41;;;;;;;;;;;19.00;43.10;;;;;;5092612;28;19934;-56
2024/01/12 08:59:08;;;;;;;;;;;19.00;43.10;;;;;;5070097;28;19920;-55
2024/01/12 09:01:34;;;;;;;;;;;18.90;43.10;;;;;;5075688;28;19920;-54
2024/01/12 09:04:02;;;;;;;;;;;19.00;43.20;;;;;;5067509;28;19920;-54
2024/01/12 09:06:28;;;;;;;;;;;19.00;43.20;;;;;;5065405;28;19989;-57
2024/01/12 09:08:55;;;;;;;;;;;19.00;43.20;;;;;;5064002;28;19927;-53
2024/01/12 09:11:22;;;;;;;;;;;19.00;43.20;;;;;;5084448;28;19974;-53
2024/01/12 09:13:50;;;;;;;;;;;19.00;43.30;;;;;;5089508;28;19920;-56
2024/01/12 09:16:17;;;;;;;;;;;19.00;43.40;;;;;;5085169;28;19928;-55
2024/01/12 09:18:44;;;;;;;;;;;19.00;43.40;;;;;;5073629;28;19920;-54
2024/01/12 09:21:14;;;;;;;;;;;19.10;43.40;;;;;;5073381;28;20574;-56
2024/01/12 09:23:41;;;;;;;;;;;19.10;43.50;;;;;;5094148;28;20365;-56
2024/01/12 09:26:09;;;;;;;;;;;19.10;43.50;;;;;;5074784;28;19920;-57
2024/01/12 09:28:36;;;;;;;;;;;19.10;43.50;;;;;;5090715;28;19977;-53
2024/01/12 09:31:05;;;;;;;;;;;19.10;43.50;;;;;;5086559;28;19968;-56
2024/01/12 09:33:31;;;;;;;;;;;19.10;43.60;;;;;;5079325;28;19931;-57
2024/01/12 09:35:58;;;;;;;;;;;19.10;43.60;;;;;;5080544;28;20384;-57
2024/01/12 09:38:25;;;;;;;;;;;19.10;43.70;;;;;;5071933;28;20393;-54
2024/01/12 09:40:51;;;;;;;;;;;19.10;43.70;;;;;;5090636;28;20416;-53
2024/01/12 09:43:18;;;;;;;;;;;19.10;43.70;;;;;;5082225;28;19920;-56
2024/01/12 09:45:45;;;;;;;;;;;19.20;43.80;;;;;;5091110;28;19920;-56
2024/01/12 09:48:13;;;;;;;;;;;19.20;43.80;;;;;;5086158;28;19927;-57
2024/01/12 09:50:40;;;;;;;;;;;19.20;43.80;;;;;;5086325;28;20005;-57
2024/01/12 09:53:08;;;;;;;;;;;19.20;43.80;;;;;;5083569;28;19920;-53
2024/01/12 09:55:35;;;;;;;;;;;19.20;43.90;;;;;;5074490;28;19932;-58
2024/01/12 09:58:02;;;;;;;;;;;19.20;43.90;;;;;;5094852;28;19932;-57
2024/01/12 10:00:29;;;;;;;;;;;19.20;43.90;;;;;;5077573;28;19935;-53
2024/01/12 10:02:56;;;;;;;;;;;19.20;44.00;;;;;;5094513;28;19950;-56
2024/01/12 10:05:24;;;;;;;;;;;19.20;44.00;;;;;;5093117;28;19926;-56
2024/01/12 10:07:50;;;;;;;;;;;19.20;44.00;;;;;;5080693;28;19931;-56
2024/01/12 10:10:17;;;;;;;;;;;19.30;44.10;;;;;;5079567;28;20033;-58
2024/01/12 10:12:48;;;;;;;;;;;19.30;44.10;;;;;;5081142;28;20170;-57
2024/01/12 10:15:15;;;;;;;;;;;19.30;44.10;;;;;;5090085;28;19928;-58
2024/01/12 10:17:41;;;;;;;;;;;19.30;44.10;;;;;;5091708;28;20250;-57
2024/01/12 10:20:09;;;;;;;;;;;19.30;44.10;;;;;;5070013;28;19920;-57
2024/01/12 10:22:37;;;;;;;;;;;19.30;44.10;;;;;;5070937;28;19920;-57
2024/01/12 10:25:05;;;;;;;;;;;19.30;44.20;;;;;;5083095;28;20266;-57
2024/01/12 10:27:32;;;;;;;;;;;19.30;44.20;;;;;;5080939;28;19921;-57
2024/01/12 10:29:58;;;;;;;;;;;19.30;44.20;;;;;;5071034;28;19924;-54
2024/01/12 10:32:25;;;;;;;;;;;19.30;44.20;;;;;;5073854;28;19927;-57
2024/01/12 10:34:53;;;;;;;;;;;19.30;44.20;;;;;;5093023;28;19950;-54
2024/01/12 10:37:19;;;;;;;;;;;19.30;44.30;;;;;;5092621;28;20019;-53
2024/01/12 10:39:48;;;;;;;;;;;19.30;44.30;;;;;;5077858;28;19924;-58
2024/01/12 10:42:15;;;;;;;;;;;19.30;44.30;;;;;;5080907;28;20462;-54
2024/01/12 10:44:43;;;;;;;;;;;19.30;44.30;;;;;;5088626;28;19924;-53
2024/01/12 10:47:11;;;;;;;;;;;19.30;44.40;;;;;;5073437;28;19924;-52
2024/01/12 10:49:39;;;;;;;;;;;19.30;44.40;;;;;;5082585;28;19920;-57
2024/01/12 10:52:08;;;;;;;;;;;19.40;44.50;;;;;;5079116;28;19920;-49
2024/01/12 10:54:35;;;;;;;;;;;19.40;44.50;;;;;;5091388;28;19931;-56
2024/01/12 10:57:03;;;;;;;;;;;19.30;44.40;;;;;;5089422;28;19943;-54
2024/01/12 10:59:30;;;;;;;;;;;19.30;44.50;;;;;;5086498;28;19924;-57
2024/01/12 11:01:57;;;;;;;;;;;19.30;44.50;;;;;;5069650;28;19973;-58
2024/01/12 11:04:23;;;;;;;;;;;19.40;44.60;;;;;;5078224;28;19927;-57
2024/01/12 11:06:55;;;;;;;;;;;19.40;44.60;;;;;;5068475;28;19934;-56
2024/01/12 11:09:21;;;;;;;;;;;19.40;44.60;;;;;;5090504;28;19920;-55
2024/01/12 11:11:50;;;;;;;;;;;19.30;44.50;;;;;;5074876;28;19924;-57
2024/01/12 11:14:20;;;;;;;;;;;19.30;44.50;;;;;;5093011;28;19924;-56
2024/01/12 11:16:47;;;;;;;;;;;19.40;44.60;;;;;;5086758;28;19924;-58
2024/01/12 11:19:13;;;;;;;;;;;19.40;44.60;;;;;;5076898;28;19928;-55
2024/01/12 11:21:41;;;;;;;;;;;19.40;44.60;;;;;;5076432;28;19940;-58
2024/01/12 11:24:09;;;;;;;;;;;19.40;44.50;;;;;;5066494;28;20125;-58
2024/01/12 11:26:36;;;;;;;;;;;19.40;38.80;;;;;;5074282;28;19931;-57
2024/01/12 11:29:03;;;;;;;;;;;19.30;40.50;;;;;;5069636;28;19924;-57
2024/01/12 11:31:31;;;;;;;;;;;19.20;40.90;;;;;;5086693;28;19936;-54
2024/01/12 11:33:58;;;;;;;;;;;19.20;41.50;;;;;;5073167;28;19925;-54
2024/01/12 11:36:26;;;;;;;;;;;19.20;41.90;;;;;;5071926;28;19927;-56
2024/01/12 11:38:55;;;;;;;;;;;19.20;42.20;;;;;;5089679;28;20407;-56
2024/01/12 11:41:22;;;;;;;;;;;19.10;42.40;;;;;;5071303;28;20326;-56
2024/01/12 11:43:51;;;;;;;;;;;19.10;42.50;;;;;;5088864;28;20708;-57
2024/01/12 11:46:18;;;;;;;;;;;19.20;42.80;;;;;;5079541;28;19932;-57
2024/01/12 11:48:47;;;;;;;;;;;19.10;42.80;;;;;;5066351;28;19928;-57
2024/01/12 11:51:20;;;;;;;;;;;19.20;43.00;;;;;;5072844;28;19973;-55
2024/01/12 11:53:49;;;;;;;;;;;19.20;43.10;;;;;;5086385;28;19939;-52
2024/01/12 11:56:16;;;;;;;;;;;19.20;43.20;;;;;;5072951;28;20099;-57
2024/01/12 11:58:43;;;;;;;;;;;19.20;43.20;;;;;;5060093;28;19943;-56
2024/01/12 12:01:10;;;;;;;;;;;19.20;43.30;;;;;;5074002;28;19928;-58
2024/01/12 12:03:36;;;;;;;;;;;19.20;43.30;;;;;;5069065;28;19924;-57
2024/01/12 12:06:06;;;;;;;;;;;19.20;43.40;;;;;;5086323;28;19940;-58
2024/01/12 12:08:34;;;;;;;;;;;19.30;43.50;;;;;;5075368;28;20362;-58
2024/01/12 12:11:01;;;;;;;;;;;19.30;43.50;;;;;;5074419;28;19920;-56
2024/01/12 12:13:27;;;;;;;;;;;19.30;43.50;;;;;;5088008;28;19920;-57
2024/01/12 12:15:54;;;;;;;;;;;19.30;43.60;;;;;;5085956;28;19970;-57
2024/01/12 12:18:21;;;;;;;;;;;19.30;43.70;;;;;;5080101;28;20373;-51
2024/01/12 12:20:48;;;;;;;;;;;19.30;43.90;;;;;;5082147;28;20372;-51
2024/01/12 12:23:16;;;;;;;;;;;19.30;44.00;;;;;;5087259;28;19924;-52
2024/01/12 12:25:44;;;;;;;;;;;19.30;44.10;;;;;;5080761;28;19936;-57
2024/01/12 12:28:11;;;;;;;;;;;19.40;44.20;;;;;;5083472;28;19926;-55
2024/01/12 12:30:39;;;;;;;;;;;19.40;44.20;;;;;;5068051;28;19931;-57
2024/01/12 12:33:08;;;;;;;;;;;19.40;44.90;;;;;;5071935;28;19986;-56
2024/01/12 12:35:35;;;;;;;;;;;19.40;44.90;;;;;;5083130;28;19924;-56
2024/01/12 12:38:01;;;;;;;;;;;19.40;44.30;;;;;;5069491;28;19940;-54
2024/01/12 12:40:29;;;;;;;;;;;19.40;44.30;;;;;;5071948;28;19924;-54
2024/01/12 12:42:57;;;;;;;;;;;19.40;44.30;;;;;;5081422;28;19981;-56
2024/01/12 12:45:24;;;;;;;;;;;19.40;44.30;;;;;;5070773;28;19930;-56
2024/01/12 12:47:51;;;;;;;;;;;19.40;44.40;;;;;;5072678;28;19931;-57
2024/01/12 12:50:18;;;;;;;;;;;19.40;44.40;;;;;;5085099;28;19928;-56
2024/01/12 12:52:45;;;;;;;;;;;19.40;44.40;;;;;;5087251;28;19920;-57
2024/01/12 12:55:12;;;;;;;;;;;19.40;44.40;;;;;;5092585;28;19928;-56
2024/01/12 12:57:40;;;;;;;;;;;19.40;44.40;;;;;;5076282;28;19924;-57
2024/01/12 13:00:09;;;;;;;;;;;19.40;44.50;;;;;;5076962;28;19981;-57
2024/01/12 13:02:36;;;;;;;;;;;19.40;44.60;;;;;;5078093;28;19923;-57
2024/01/12 13:05:04;;;;;;;;;;;19.40;44.60;;;;;;5088443;28;20022;-57
2024/01/12 13:07:30;;;;;;;;;;;19.50;44.80;;;;;;5089917;28;19924;-56
2024/01/12 13:09:58;;;;;;;;;;;19.50;44.80;;;;;;5078695;28;19978;-57
2024/01/12 13:12:26;;;;;;;;;;;19.50;44.90;;;;;;5083515;28;19924;-57
2024/01/12 13:14:55;;;;;;;;;;;19.50;45.00;;;;;;5072953;28;19924;-57
2024/01/12 13:17:22;;;;;;;;;;;19.60;45.10;;;;;;5079843;28;20012;-53
2024/01/12 13:19:50;;;;;;;;;;;19.60;45.10;;;;;;5090403;28;19920;-57
2024/01/12 13:22:16;;;;;;;;;;;19.60;45.20;;;;;;5089984;28;19977;-56
2024/01/12 13:24:44;;;;;;;;;;;19.60;45.20;;;;;;5077462;28;19927;-53
2024/01/12 13:27:11;;;;;;;;;;;19.70;45.30;;;;;;5086730;28;19959;-56
2024/01/12 13:29:37;;;;;;;;;;;19.70;45.30;;;;;;5076545;28;19951;-55
2024/01/12 13:32:06;;;;;;;;;;;19.70;45.30;;;;;;5092984;28;19920;-56
2024/01/12 13:34:33;;;;;;;;;;;19.70;45.30;;;;;;5076178;28;19920;-54
2024/01/12 13:37:01;;;;;;;;;;;19.80;45.60;;;;;;5078576;28;19926;-53
2024/01/12 13:39:27;;;;;;;;;;;19.80;45.30;;;;;;5075899;28;19924;-56
2024/01/12 13:41:54;;;;;;;;;;;19.80;45.30;;;;;;5089372;28;19939;-56
2024/01/12 13:44:21;;;;;;;;;;;19.80;45.30;;;;;;5081632;28;19930;-52
2024/01/12 13:46:48;;;;;;;;;;;19.80;45.30;;;;;;5071822;28;19920;-54
2024/01/12 13:49:16;;;;;;;;;;;19.80;45.30;;;;;;5072420;28;19927;-57
2024/01/12 13:51:43;;;;;;;;;;;19.80;45.30;;;;;;5082700;28;19920;-57
2024/01/12 13:54:13;;;;;;;;;;;19.80;45.30;;;;;;5076008;28;19928;-57
2024/01/12 13:56:40;;;;;;;;;;;19.90;45.30;;;;;;5089765;28;19928;-57
2024/01/12 13:59:06;;;;;;;;;;;19.90;45.30;;;;;;5077313;28;19969;-57
2024/01/12 14:01:33;;;;;;;;;;;19.90;45.30;;;;;;5084298;28;19978;-54
2024/01/12 14:04:00;;;;;;;;;;;19.90;45.30;;;;;;5074762;28;20093;-56
2024/01/12 14:06:30;;;;;;;;;;;19.90;45.30;;;;;;5091123;28;19928;-56
2024/01/12 14:08:57;;;;;;;;;;;19.80;45.30;;;;;;5094046;28;19924;-54
2024/01/12 14:11:24;;;;;;;;;;;19.80;45.30;;;;;;5088363;28;19927;-52
2024/01/12 14:13:51;;;;;;;;;;;19.90;45.40;;;;;;5088800;28;19924;-54
2024/01/12 14:16:17;;;;;;;;;;;19.80;45.30;;;;;;5100729;28;19924;-55